Time;durP1;ratioP1;P1;durP2;ratioP2;P2;SDS_P1;SDS_P2;PMS_P1;PMS_P2;Temp;Humidity;BMP_temperature;BMP_pressure;BME280_temperature;BME280_humidity;BME280_pressure;Samples;Min_cycle;Max_cycle;Signal;HPM_P1;HPM_P2
2021/05/01 00:01:01;;;;;;;12.45;5.82;;;;;;;33.20;21.61;94285.94;5076199;28;20335;-46
2021/05/01 00:03:28;;;;;;;10.70;5.55;;;;;;;33.13;22.58;94288.88;5076172;28;20051;-45
2021/05/01 00:05:55;;;;;;;9.93;5.00;;;;;;;32.79;23.09;94285.59;5076275;28;20044;-46
2021/05/01 00:08:23;;;;;;;16.77;5.38;;;;;;;32.98;22.49;94294.69;5093433;28;20055;-45
2021/05/01 00:10:50;;;;;;;8.25;4.95;;;;;;;33.15;21.60;94283.78;5096231;28;20036;-46
2021/05/01 00:13:17;;;;;;;8.25;4.97;;;;;;;33.19;21.88;94298.72;5096853;28;20052;-47
2021/05/01 00:15:45;;;;;;;9.07;4.97;;;;;;;33.04;22.09;94300.31;5109121;28;20043;-46
2021/05/01 00:18:12;;;;;;;9.65;5.10;;;;;;;32.58;22.44;94290.81;5100288;28;20048;-46
2021/05/01 00:20:39;;;;;;;13.80;5.80;;;;;;;33.08;21.92;94301.75;5096009;28;20048;-44
2021/05/01 00:23:06;;;;;;;9.95;4.93;;;;;;;32.66;22.64;94302.94;5097791;28;20079;-45
2021/05/01 00:25:33;;;;;;;9.15;4.88;;;;;;;32.34;23.20;94299.19;5104194;28;20054;-45
2021/05/01 00:28:00;;;;;;;8.10;4.28;;;;;;;32.83;21.94;94287.44;5101842;28;20048;-45
2021/05/01 00:30:27;;;;;;;12.73;5.32;;;;;;;32.27;22.53;94299.38;5096030;28;20484;-45
2021/05/01 00:32:55;;;;;;;10.05;4.45;;;;;;;32.93;21.84;94297.19;5096059;28;20055;-46
2021/05/01 00:35:22;;;;;;;8.25;4.53;;;;;;;32.70;21.97;94298.94;5095852;28;20051;-47
2021/05/01 00:37:50;;;;;;;10.98;5.18;;;;;;;32.12;22.69;94298.19;5094743;28;20044;-47
2021/05/01 00:40:17;;;;;;;8.82;4.60;;;;;;;33.10;21.69;94293.97;5089821;28;20358;-47
2021/05/01 00:42:44;;;;;;;11.07;4.78;;;;;;;32.94;21.93;94302.16;5075551;28;20044;-47
2021/05/01 00:45:11;;;;;;;12.63;5.07;;;;;;;31.80;23.38;94297.06;5090563;28;20335;-46
2021/05/01 00:47:39;;;;;;;6.88;4.05;;;;;;;32.44;22.22;94290.00;5115918;28;20043;-46
2021/05/01 00:50:07;;;;;;;9.85;4.57;;;;;;;33.31;21.49;94299.91;5114166;28;20051;-47
2021/05/01 00:52:35;;;;;;;12.63;4.85;;;;;;;32.35;22.57;94298.00;5077912;28;20040;-47
2021/05/01 00:55:05;;;;;;;9.13;4.55;;;;;;;32.47;22.36;94297.25;5077845;28;20051;-47
2021/05/01 00:57:32;;;;;;;8.55;4.13;;;;;;;31.54;23.56;94287.25;5095489;28;20462;-46
2021/05/01 00:59:59;;;;;;;8.23;4.30;;;;;;;32.47;22.81;94294.56;5074255;28;20048;-45
2021/05/01 01:02:28;;;;;;;14.18;4.47;;;;;;;32.62;22.44;94286.06;5095371;28;20447;-46
2021/05/01 01:04:56;;;;;;;9.07;5.05;;;;;;;33.21;21.66;94287.44;5079517;28;20048;-45
2021/05/01 01:07:23;;;;;;;10.40;4.63;;;;;;;32.20;23.06;94294.09;5075012;28;20463;-46
2021/05/01 01:09:51;;;;;;;9.05;4.20;;;;;;;32.09;23.04;94278.16;5075231;28;20048;-46
2021/05/01 01:12:18;;;;;;;8.73;4.65;;;;;;;32.65;22.45;94272.44;5094274;28;20047;-47
2021/05/01 01:14:46;;;;;;;11.80;4.38;;;;;;;31.62;24.06;94280.47;5095271;28;20043;-46
2021/05/01 01:17:13;;;;;;;9.88;4.45;;;;;;;32.29;22.90;94286.19;5057231;28;20075;-47
2021/05/01 01:19:40;;;;;;;9.88;4.72;;;;;;;32.41;22.30;94285.44;5075044;28;20048;-46
2021/05/01 01:22:15;;;;;;;8.63;4.40;;;;;;;32.17;23.13;94276.78;5092335;28;20044;-47
2021/05/01 01:24:42;;;;;;;10.27;4.30;;;;;;;31.98;23.19;94276.91;5095301;28;20051;-47
2021/05/01 01:27:10;;;;;;;9.93;4.50;;;;;;;32.57;22.56;94273.81;5094982;28;20439;-47
2021/05/01 01:29:39;;;;;;;11.73;3.88;;;;;;;31.96;23.04;94263.81;5095168;28;20044;-46
2021/05/01 01:32:08;;;;;;;8.75;4.20;;;;;;;32.77;22.14;94274.38;5094970;28;20450;-47
2021/05/01 01:34:35;;;;;;;8.77;4.30;;;;;;;32.73;21.64;94275.69;5095048;28;20052;-47
2021/05/01 01:37:02;;;;;;;9.73;4.40;;;;;;;31.56;23.22;94257.88;5095028;28;20056;-46
2021/05/01 01:39:29;;;;;;;7.57;4.25;;;;;;;32.68;21.99;94278.91;5077256;28;20048;-46
2021/05/01 01:41:57;;;;;;;8.57;4.05;;;;;;;31.58;23.40;94261.66;5097866;28;20516;-47
2021/05/01 01:44:24;;;;;;;10.48;4.55;;;;;;;32.78;21.54;94267.78;5098117;28;20054;-46
2021/05/01 01:46:51;;;;;;;8.85;4.22;;;;;;;32.12;22.74;94271.16;5078779;28;20041;-46
2021/05/01 01:49:18;;;;;;;9.45;4.82;;;;;;;31.70;23.50;94271.00;5078717;28;20049;-46
2021/05/01 01:51:45;;;;;;;9.15;3.97;;;;;;;32.36;22.34;94271.69;5091421;28;20043;-46
2021/05/01 01:54:12;;;;;;;9.95;4.68;;;;;;;31.09;24.13;94262.78;5098699;28;20469;-46
2021/05/01 01:56:39;;;;;;;8.52;4.50;;;;;;;31.03;24.10;94254.44;5098828;28;20055;-46
2021/05/01 01:59:07;;;;;;;11.35;4.50;;;;;;;32.10;22.97;94262.72;5098888;28;20074;-48
2021/05/01 02:01:34;;;;;;;10.55;4.53;;;;;;;32.50;22.33;94263.94;5098815;28;20048;-46
2021/05/01 02:04:01;;;;;;;8.90;4.35;;;;;;;32.72;22.08;94263.34;5080792;28;20044;-47
2021/05/01 02:06:29;;;;;;;11.93;4.72;;;;;;;32.04;22.96;94269.81;5098599;28;20048;-47
2021/05/01 02:09:01;;;;;;;8.38;4.32;;;;;;;32.29;22.69;94274.59;5098784;28;20044;-46
2021/05/01 02:11:36;;;;;;;9.05;4.20;;;;;;;31.80;22.98;94271.97;5098741;28;20044;-46
2021/05/01 02:14:04;;;;;;;12.35;4.63;;;;;;;31.45;23.61;94273.56;5098519;28;20051;-47
2021/05/01 02:16:32;;;;;;;7.50;4.50;;;;;;;31.22;24.18;94282.56;5117168;28;20051;-47
2021/05/01 02:19:00;;;;;;;10.75;4.32;;;;;;;31.21;23.84;94292.59;5118766;28;20063;-46
2021/05/01 02:21:27;;;;;;;13.65;5.80;;;;;;;31.36;24.03;94293.06;5118683;28;20052;-47
2021/05/01 02:24:00;;;;;;;11.48;4.68;;;;;;;30.85;24.41;94297.22;5103206;28;20051;-46
2021/05/01 02:26:28;;;;;;;8.88;5.13;;;;;;;31.51;23.49;94290.78;5093136;28;20052;-46
2021/05/01 02:28:55;;;;;;;7.60;4.53;;;;;;;30.98;24.57;94288.09;5078067;28;20490;-46
2021/05/01 02:31:22;;;;;;;7.03;4.60;;;;;;;31.37;24.35;94280.31;5078040;28;20048;-46
2021/05/01 02:33:49;;;;;;;9.70;4.75;;;;;;;31.82;23.25;94278.47;5107440;28;20050;-46
2021/05/01 02:36:17;;;;;;;9.40;4.72;;;;;;;31.67;23.66;94271.88;5098028;28;20058;-46
2021/05/01 02:38:44;;;;;;;7.85;4.32;;;;;;;30.04;25.52;94262.56;5080393;28;20067;-46
2021/05/01 02:41:11;;;;;;;10.85;4.57;;;;;;;31.36;23.95;94276.09;5097967;28;20051;-46
2021/05/01 02:43:38;;;;;;;7.90;4.40;;;;;;;30.26;25.51;94279.88;5097812;28;20044;-46
2021/05/01 02:46:05;;;;;;;10.70;4.50;;;;;;;30.59;24.93;94275.38;5079954;28;20051;-46
2021/05/01 02:48:33;;;;;;;8.18;4.20;;;;;;;30.78;24.55;94271.16;5097750;28;20051;-45
2021/05/01 02:51:01;;;;;;;9.95;4.90;;;;;;;30.82;24.79;94273.78;5097808;28;20047;-47
2021/05/01 02:53:28;;;;;;;12.23;5.43;;;;;;;30.69;24.79;94285.19;5097417;28;20039;-46
2021/05/01 02:55:55;;;;;;;10.65;5.07;;;;;;;30.89;24.62;94279.03;5097801;28;20047;-45
2021/05/01 02:58:23;;;;;;;14.68;6.18;;;;;;;31.85;23.60;94280.31;5097716;28;20447;-45
2021/05/01 03:00:53;;;;;;;12.38;4.95;;;;;;;30.26;25.45;94276.41;5097723;28;20043;-45
2021/05/01 03:03:20;;;;;;;9.45;5.38;;;;;;;30.74;24.70;94281.28;5097376;28;20043;-46
2021/05/01 03:05:47;;;;;;;16.95;5.53;;;;;;;30.21;25.51;94271.50;5097767;28;20320;-46
2021/05/01 03:08:14;;;;;;;12.85;5.55;;;;;;;30.11;25.68;94270.53;5093443;28;20056;-47
2021/05/01 03:10:41;;;;;;;9.05;5.07;;;;;;;30.17;25.61;94281.56;5076945;28;20056;-45
2021/05/01 03:13:08;;;;;;;9.75;4.80;;;;;;;32.00;23.08;94290.75;5077344;28;20052;-45
2021/05/01 03:15:36;;;;;;;7.78;5.22;;;;;;;30.92;24.67;94280.88;5099245;28;20104;-47
2021/05/01 03:18:03;;;;;;;9.50;5.13;;;;;;;30.41;25.30;94283.03;5117625;28;20043;-46
2021/05/01 03:20:30;;;;;;;10.77;5.35;;;;;;;30.60;24.76;94282.31;5117885;28;20054;-46
2021/05/01 03:22:57;;;;;;;10.30;5.63;;;;;;;30.88;24.80;94286.34;5098762;28;20473;-49
2021/05/01 03:25:24;;;;;;;16.33;5.47;;;;;;;29.44;26.72;94293.94;5097217;28;20446;-46
2021/05/01 03:27:51;;;;;;;13.18;5.50;;;;;;;29.89;25.98;94293.59;5079334;28;20048;-46
2021/05/01 03:30:20;;;;;;;11.70;5.05;;;;;;;31.10;24.68;94297.47;5097227;28;20044;-46
2021/05/01 03:32:47;;;;;;;9.18;5.15;;;;;;;29.82;26.17;94291.78;5096981;28;20052;-46
2021/05/01 03:35:15;;;;;;;16.40;7.40;;;;;;;30.64;25.02;94291.09;5079168;28;20051;-46
2021/05/01 03:37:43;;;;;;;11.88;5.68;;;;;;;30.27;25.56;94302.19;5096977;28;20036;-47
2021/05/01 03:40:12;;;;;;;9.70;5.35;;;;;;;30.56;25.11;94297.78;5096960;28;20481;-46
2021/05/01 03:42:40;;;;;;;11.45;6.03;;;;;;;30.18;25.74;94300.03;5096536;28;20044;-46
2021/05/01 03:45:08;;;;;;;11.35;5.85;;;;;;;31.19;24.29;94294.97;5103720;28;20047;-46
2021/05/01 03:47:35;;;;;;;12.20;6.00;;;;;;;30.29;25.10;94289.81;5117145;28;20040;-46
2021/05/01 03:50:02;;;;;;;10.05;5.60;;;;;;;31.25;23.91;94292.56;5117178;28;20058;-47
2021/05/01 03:52:30;;;;;;;14.77;6.50;;;;;;;29.21;27.44;94302.72;5117245;28;20043;-47
2021/05/01 03:54:57;;;;;;;14.20;6.30;;;;;;;31.50;23.89;94298.13;5096678;28;20107;-46
2021/05/01 03:57:24;;;;;;;12.73;6.63;;;;;;;30.32;25.33;94290.94;5095639;28;20051;-47
2021/05/01 03:59:51;;;;;;;12.05;6.35;;;;;;;29.37;26.79;94297.47;5096376;28;20446;-46
2021/05/01 04:02:18;;;;;;;10.13;6.93;;;;;;;29.79;26.77;94300.69;5096502;28;20052;-46
2021/05/01 04:04:45;;;;;;;10.18;5.88;;;;;;;31.49;23.72;94306.63;5095684;28;20438;-47
2021/05/01 04:07:12;;;;;;;9.75;5.70;;;;;;;30.38;25.34;94300.06;5096306;28;20051;-46
2021/05/01 04:09:40;;;;;;;9.55;5.50;;;;;;;30.62;25.10;94312.31;5093166;28;20477;-47
2021/05/01 04:12:08;;;;;;;9.63;5.20;;;;;;;31.33;23.95;94314.75;5096397;28;20051;-46
2021/05/01 04:14:35;;;;;;;6.82;4.68;;;;;;;31.33;23.86;94317.44;5098696;28;20052;-46
2021/05/01 04:17:02;;;;;;;11.73;5.55;;;;;;;30.99;24.45;94305.03;5116512;28;20040;-46
2021/05/01 04:19:29;;;;;;;13.05;5.43;;;;;;;30.84;24.64;94317.31;5085854;28;20473;-44
2021/05/01 04:22:03;;;;;;;10.48;4.70;;;;;;;31.72;23.28;94311.91;5096239;28;20059;-46
2021/05/01 04:24:35;;;;;;;7.93;5.03;;;;;;;30.45;25.24;94312.63;5096143;28;20052;-46
2021/05/01 04:27:15;;;;;;;12.50;5.30;;;;;;;32.08;23.30;94319.16;5094997;28;20048;-46
2021/05/01 04:29:42;;;;;;;9.48;4.88;;;;;;;31.34;24.58;94305.47;5095716;28;20044;-47
2021/05/01 04:32:10;;;;;;;12.75;9.63;;;;;;;32.15;23.91;94308.16;5096030;28;20435;-46
2021/05/01 04:34:37;;;;;;;12.75;8.13;;;;;;;31.52;24.72;94305.81;5095992;28;20043;-48
2021/05/01 04:37:04;;;;;;;12.68;6.35;;;;;;;32.03;24.00;94319.69;5095783;28;20051;-46
2021/05/01 04:39:31;;;;;;;11.75;5.55;;;;;;;32.04;23.16;94294.16;5095622;28;20047;-47
2021/05/01 04:41:59;;;;;;;11.40;6.40;;;;;;;32.76;23.15;94312.69;5094367;28;20362;-46
2021/05/01 04:44:26;;;;;;;10.07;5.93;;;;;;;31.57;24.36;94308.00;5078055;28;20463;-46
2021/05/01 04:46:53;;;;;;;9.20;5.63;;;;;;;32.05;23.73;94317.31;5116015;28;20055;-46
2021/05/01 04:49:20;;;;;;;14.30;5.25;;;;;;;31.62;25.12;94310.19;5106201;28;20048;-46
2021/05/01 04:51:47;;;;;;;14.98;5.60;;;;;;;32.13;24.08;94311.28;5095642;28;20067;-46
2021/05/01 04:54:14;;;;;;;8.90;4.82;;;;;;;31.39;24.72;94310.34;5095666;28;20047;-47
2021/05/01 04:56:42;;;;;;;7.95;4.10;;;;;;;31.95;23.25;94315.59;5095445;28;20051;-46
2021/05/01 04:59:09;;;;;;;8.13;4.50;;;;;;;32.34;22.97;94312.69;5095215;28;20049;-45
2021/05/01 05:01:36;;;;;;;10.75;4.40;;;;;;;33.18;21.66;94326.22;5095103;28;20466;-46
2021/05/01 05:04:03;;;;;;;9.98;4.63;;;;;;;32.04;23.47;94318.50;5095572;28;20438;-46
2021/05/01 05:06:30;;;;;;;11.07;4.57;;;;;;;32.07;23.56;94317.63;5095369;28;20043;-45
2021/05/01 05:09:00;;;;;;;11.50;4.53;;;;;;;32.22;22.99;94319.53;5095265;28;20078;-45
2021/05/01 05:11:27;;;;;;;9.75;4.47;;;;;;;32.06;23.10;94322.28;5095415;28;20510;-46
2021/05/01 05:13:54;;;;;;;10.27;4.70;;;;;;;32.08;23.25;94327.25;5095404;28;20055;-46
2021/05/01 05:16:21;;;;;;;8.85;4.03;;;;;;;31.78;23.52;94328.41;5077022;28;20044;-46
2021/05/01 05:18:49;;;;;;;10.85;4.63;;;;;;;32.36;23.27;94329.25;5094959;28;20058;-46
2021/05/01 05:21:16;;;;;;;8.25;4.10;;;;;;;32.26;23.08;94318.69;5095272;28;20044;-46
2021/05/01 05:23:43;;;;;;;9.98;4.90;;;;;;;33.13;22.62;94334.91;5095269;28;20476;-46
2021/05/01 05:26:10;;;;;;;10.13;5.13;;;;;;;33.54;22.18;94332.09;5095155;28;20044;-46
2021/05/01 05:28:37;;;;;;;10.88;4.60;;;;;;;32.80;22.43;94329.66;5093504;28;20052;-47
2021/05/01 05:31:04;;;;;;;11.13;4.55;;;;;;;32.73;22.56;94329.81;5074962;28;20055;-46
2021/05/01 05:33:32;;;;;;;8.88;4.57;;;;;;;33.13;21.81;94332.19;5075019;28;20044;-47
2021/05/01 05:35:59;;;;;;;11.95;4.95;;;;;;;32.64;22.56;94319.63;5074983;28;20388;-47
2021/05/01 05:38:27;;;;;;;9.93;4.38;;;;;;;33.26;21.88;94327.53;5075614;28;20064;-47
2021/05/01 05:40:54;;;;;;;10.43;4.93;;;;;;;34.60;20.76;94332.53;5095306;28;20055;-47
2021/05/01 05:43:21;;;;;;;7.95;5.00;;;;;;;32.61;22.72;94342.13;5094952;28;20051;-46
2021/05/01 05:45:48;;;;;;;11.65;5.10;;;;;;;32.72;22.55;94344.53;5107832;28;20477;-46
2021/05/01 05:48:15;;;;;;;10.57;4.13;;;;;;;34.17;21.15;94338.66;5115252;28;20051;-47
2021/05/01 05:50:42;;;;;;;9.25;4.30;;;;;;;34.28;21.05;94342.53;5096086;28;20046;-47
2021/05/01 05:53:09;;;;;;;10.82;4.88;;;;;;;34.18;21.26;94335.50;5094841;28;20051;-46
2021/05/01 05:55:36;;;;;;;12.55;4.38;;;;;;;33.51;22.04;94343.81;5094963;28;20048;-46
2021/05/01 05:58:04;;;;;;;9.10;4.63;;;;;;;34.76;21.00;94340.50;5092551;28;20055;-46
2021/05/01 06:00:31;;;;;;;10.60;4.60;;;;;;;34.71;20.57;94343.78;5089281;28;20044;-47
2021/05/01 06:03:01;;;;;;;9.38;4.40;;;;;;;34.50;20.56;94333.69;5094840;28;20048;-45
2021/05/01 06:05:36;;;;;;;11.13;4.55;;;;;;;34.72;21.05;94337.16;5090615;28;20514;-48
2021/05/01 06:08:05;;;;;;;10.75;4.57;;;;;;;35.19;20.96;94338.97;5090363;28;20340;-47
2021/05/01 06:10:33;;;;;;;12.82;5.18;;;;;;;34.97;20.67;94346.41;5073638;28;20055;-47
2021/05/01 06:13:03;;;;;;;12.13;5.20;;;;;;;34.87;21.08;94342.84;5094877;28;20044;-46
2021/05/01 06:15:31;;;;;;;10.68;5.60;;;;;;;35.47;20.18;94345.31;5104743;28;20039;-46
2021/05/01 06:18:00;;;;;;;14.18;5.90;;;;;;;35.85;19.95;94334.13;5113833;28;20051;-46
2021/05/01 06:20:29;;;;;;;20.25;6.65;;;;;;;36.37;19.69;94335.13;5079420;28;20060;-47
2021/05/01 06:22:56;;;;;;;12.50;5.75;;;;;;;36.63;19.08;94333.59;5078474;28;20040;-46
2021/05/01 06:25:27;;;;;;;12.25;5.03;;;;;;;36.72;18.34;94322.72;5074365;28;20048;-46
2021/05/01 06:27:54;;;;;;;11.77;5.85;;;;;;;36.71;18.31;94321.22;5077020;28;20443;-47
2021/05/01 06:30:23;;;;;;;11.57;4.93;;;;;;;36.47;18.93;94316.84;5081572;28;20369;-46
2021/05/01 06:32:51;;;;;;;11.68;5.80;;;;;;;35.70;20.23;94306.75;5078177;28;20451;-45
2021/05/01 06:35:19;;;;;;;10.95;6.07;;;;;;;35.85;19.83;94306.94;5077865;28;20055;-45
2021/05/01 06:37:47;;;;;;;11.23;6.55;;;;;;;36.42;19.21;94304.59;5077724;28;20048;-46
2021/05/01 06:40:18;;;;;;;12.10;6.03;;;;;;;38.14;17.22;94309.16;5080248;28;20052;-44
2021/05/01 06:42:57;;;;;;;11.85;6.22;;;;;;;37.57;17.65;94311.91;5081908;28;20083;-46
2021/05/01 06:45:25;;;;;;;10.32;5.47;;;;;;;38.09;17.93;94315.28;5105273;28;20378;-42
2021/05/01 06:48:02;;;;;;;12.40;5.70;;;;;;;37.77;17.56;94320.34;5082735;28;20044;-42
2021/05/01 06:50:30;;;;;;;12.00;5.57;;;;;;;38.28;16.42;94324.88;5081733;28;20059;-42
2021/05/01 06:52:58;;;;;;;9.07;4.85;;;;;;;38.80;16.74;94333.56;5087386;28;20040;-42
2021/05/01 06:55:31;;;;;;;10.23;5.57;;;;;;;38.47;17.49;94341.84;5088452;28;20047;-44
2021/05/01 06:57:59;;;;;;;9.65;5.32;;;;;;;38.53;17.09;94356.38;5118087;28;20386;-43
2021/05/01 07:00:28;;;;;;;9.02;5.22;;;;;;;38.61;16.73;94365.72;5094317;28;20045;-44
2021/05/01 07:03:04;;;;;;;11.13;5.35;;;;;;;36.27;19.31;94375.16;5077575;28;20356;-44
2021/05/01 07:05:31;;;;;;;10.77;5.70;;;;;;;37.32;18.54;94379.25;5077552;28;20048;-44
2021/05/01 07:07:59;;;;;;;11.98;5.60;;;;;;;37.38;18.74;94386.81;5077302;28;20044;-43
2021/05/01 07:10:35;;;;;;;15.18;6.45;;;;;;;36.46;19.54;94397.75;5106405;28;20451;-44
2021/05/01 07:13:05;;;;;;;12.60;5.35;;;;;;;36.68;19.47;94387.44;5097573;28;20044;-43
2021/05/01 07:15:33;;;;;;;10.32;4.93;;;;;;;36.51;19.05;94396.38;5107843;28;20051;-43
2021/05/01 07:18:14;;;;;;;11.43;4.88;;;;;;;37.30;17.71;94395.31;5073008;28;20395;-44
2021/05/01 07:20:45;;;;;;;15.30;5.13;;;;;;;37.21;18.09;94395.28;5071276;28;20041;-43
2021/05/01 07:23:17;;;;;;;9.75;4.72;;;;;;;36.34;19.08;94390.47;5072549;28;20439;-43
2021/05/01 07:25:44;;;;;;;12.45;4.97;;;;;;;37.05;18.79;94392.91;5072553;28;20443;-44
2021/05/01 07:28:14;;;;;;;12.13;5.40;;;;;;;39.04;17.10;94394.34;5068256;28;20052;-43
2021/05/01 07:30:47;;;;;;;10.45;4.63;;;;;;;38.77;17.07;94391.84;5069727;28;20056;-49
2021/05/01 07:33:43;;;;;;;9.10;4.25;;;;;;;38.60;17.42;94396.97;5067676;28;20475;-45
2021/05/01 07:36:12;;;;;;;10.00;5.05;;;;;;;38.87;16.62;94393.28;5054715;28;20052;-45
2021/05/01 07:38:43;;;;;;;18.02;13.68;;;;;;;38.60;17.24;94402.44;5072288;28;20049;-46
2021/05/01 07:41:14;;;;;;;10.48;5.38;;;;;;;39.21;16.60;94399.38;5071433;28;20044;-44
2021/05/01 07:43:50;;;;;;;11.80;4.47;;;;;;;39.01;16.56;94389.06;5067319;28;20047;-44
2021/05/01 07:46:17;;;;;;;6.90;4.53;;;;;;;39.35;16.44;94390.44;5082017;28;20048;-43
2021/05/01 07:48:47;;;;;;;8.30;4.38;;;;;;;39.05;16.56;94401.34;5094441;28;20044;-45
2021/05/01 07:51:14;;;;;;;14.13;4.63;;;;;;;39.13;16.16;94402.50;5086775;28;20363;-46
2021/05/01 07:53:43;;;;;;;9.93;4.18;;;;;;;39.17;16.09;94403.06;5092147;28;20056;-44
2021/05/01 07:56:10;;;;;;;10.30;4.90;;;;;;;40.04;15.49;94389.03;5082658;28;20045;-46
2021/05/01 07:58:37;;;;;;;7.38;4.07;;;;;;;39.54;15.50;94401.94;5071572;28;20056;-45
2021/05/01 08:01:04;;;;;;;11.15;4.30;;;;;;;39.08;16.00;94403.16;5077655;28;20059;-45
2021/05/01 08:03:32;;;;;;;10.00;4.32;;;;;;;39.28;16.25;94401.72;5075024;28;20045;-45
2021/05/01 08:05:59;;;;;;;11.52;5.13;;;;;;;38.97;15.72;94389.25;5071273;28;20053;-45
2021/05/01 08:08:26;;;;;;;10.65;4.78;;;;;;;38.97;16.36;94389.25;5071407;28;20044;-44
2021/05/01 08:10:53;;;;;;;10.45;4.70;;;;;;;39.73;15.47;94392.28;5074025;28;20055;-46
2021/05/01 08:13:32;;;;;;;9.30;5.13;;;;;;;39.46;15.38;94390.59;5091699;28;20044;-49
2021/05/01 08:15:59;;;;;;;11.65;5.05;;;;;;;39.95;15.00;94392.63;5084453;28;20055;-47
2021/05/01 08:18:26;;;;;;;13.75;4.95;;;;;;;39.32;15.53;94385.91;5070874;28;20490;-47
2021/05/01 08:20:53;;;;;;;13.85;5.15;;;;;;;39.71;15.53;94379.09;5075004;28;20048;-48
2021/05/01 08:23:20;;;;;;;9.05;4.40;;;;;;;40.09;15.11;94385.63;5094156;28;20063;-45
2021/05/01 08:25:48;;;;;;;11.02;4.30;;;;;;;40.06;15.01;94389.28;5096636;28;20055;-45
2021/05/01 08:28:16;;;;;;;8.70;4.43;;;;;;;40.02;14.62;94381.28;5094113;28;20506;-45
2021/05/01 08:30:44;;;;;;;78.38;44.17;;;;;;;40.50;15.01;94385.66;5058498;28;20052;-43
2021/05/01 08:33:11;;;;;;;19.77;8.88;;;;;;;40.10;15.16;94384.41;5076418;28;20366;-45
2021/05/01 08:35:39;;;;;;;13.60;6.15;;;;;;;39.62;15.26;94381.94;5076380;28;20044;-44
2021/05/01 08:38:07;;;;;;;13.90;6.30;;;;;;;40.25;14.88;94370.63;5076579;28;20063;-44
2021/05/01 08:40:35;;;;;;;12.23;5.07;;;;;;;39.96;14.98;94363.28;5077942;28;20060;-48
2021/05/01 08:43:09;;;;;;;10.18;5.70;;;;;;;40.88;14.64;94368.94;5056215;28;20051;-44
2021/05/01 08:45:36;;;;;;;11.93;4.70;;;;;;;40.70;14.39;94358.25;5076916;28;20048;-45
2021/05/01 08:48:04;;;;;;;12.60;4.95;;;;;;;41.11;14.13;94355.41;5076424;28;20052;-53
2021/05/01 08:50:38;;;;;;;12.18;5.10;;;;;;;41.69;13.97;94345.97;5077729;28;20040;-47
2021/05/01 08:53:06;;;;;;;12.23;4.57;;;;;;;40.74;14.92;94350.56;5058591;28;20052;-46
2021/05/01 08:55:36;;;;;;;11.45;4.68;;;;;;;40.56;14.65;94350.84;5076537;28;20044;-46
2021/05/01 08:58:05;;;;;;;11.60;4.85;;;;;;;40.69;14.32;94343.03;5076372;28;20053;-46
2021/05/01 09:00:34;;;;;;;8.40;4.60;;;;;;;40.98;13.89;94336.63;5076739;28;20044;-44
2021/05/01 09:03:04;;;;;;;16.25;5.75;;;;;;;40.88;14.23;94327.84;5076189;28;20128;-43
2021/05/01 09:05:31;;;;;;;12.93;5.30;;;;;;;40.80;13.90;94334.97;5058220;28;20075;-46
2021/05/01 09:07:59;;;;;;;12.30;4.82;;;;;;;40.82;14.15;94332.47;5075614;28;20043;-46
2021/05/01 09:10:28;;;;;;;8.52;4.32;;;;;;;40.91;14.33;94332.34;5075971;28;20064;-46
2021/05/01 09:12:55;;;;;;;11.00;5.05;;;;;;;40.76;13.86;94331.66;5055849;28;20052;-52
2021/05/01 09:15:29;;;;;;;8.00;4.43;;;;;;;40.85;14.59;94328.03;5059756;28;20355;-44
2021/05/01 09:18:05;;;;;;;12.07;5.10;;;;;;;41.49;14.19;94335.81;5075995;28;20053;-45
2021/05/01 09:20:33;;;;;;;8.77;4.40;;;;;;;40.10;15.05;94337.88;5075727;28;20389;-45
2021/05/01 09:23:12;;;;;;;10.77;5.28;;;;;;;40.85;14.27;94338.97;5076220;28;20352;-44
2021/05/01 09:26:00;;;;;;;18.20;5.78;;;;;;;40.12;14.40;94335.41;5074462;28;20485;-64
2021/05/01 09:28:42;;;;;;;11.27;5.35;;;;;;;40.30;14.26;94335.09;5074807;28;20044;-46
2021/05/01 09:31:14;;;;;;;13.18;5.07;;;;;;;40.32;14.36;94326.41;5075514;28;20060;-44
2021/05/01 09:33:43;;;;;;;13.68;5.18;;;;;;;41.09;13.71;94325.75;5074543;28;20040;-45
2021/05/01 09:36:22;;;;;;;9.02;4.47;;;;;;;40.46;14.26;94320.16;5056818;28;20455;-45
2021/05/01 09:38:50;;;;;;;15.55;5.70;;;;;;;41.10;14.08;94323.75;5075929;28;20060;-49
2021/05/01 09:41:25;;;;;;;11.93;6.80;;;;;;;40.79;14.49;94330.69;5072227;28;20474;-44
2021/05/01 09:44:11;;;;;;;12.88;8.32;;;;;;;40.97;14.84;94324.91;5091194;28;20048;-46
2021/05/01 09:46:38;;;;;;;10.85;6.90;;;;;;;40.56;15.04;94326.22;5094684;28;20055;-45
2021/05/01 09:49:26;;;;;;;14.25;5.13;;;;;;;41.24;13.66;94322.94;5095842;28;20044;-47
2021/05/01 09:52:10;;;;;;;13.48;5.28;;;;;;;41.27;13.77;94310.97;5092790;28;20052;-45
2021/05/01 09:54:45;;;;;;;11.77;4.63;;;;;;;41.20;14.18;94306.66;5092538;28;20054;-45
2021/05/01 09:57:20;;;;;;;11.82;5.20;;;;;;;41.37;13.66;94306.81;5072933;28;20048;-45
2021/05/01 09:59:54;;;;;;;10.48;4.68;;;;;;;41.47;13.75;94310.88;5092106;28;20044;-45
2021/05/01 10:02:30;;;;;;;13.48;5.13;;;;;;;41.47;13.24;94308.13;5095682;28;20048;-48
2021/05/01 10:04:59;;;;;;;9.18;4.78;;;;;;;40.94;14.21;94303.22;5064578;28;20446;-42
2021/05/01 10:07:27;;;;;;;9.65;4.70;;;;;;;37.19;17.62;94310.50;5088419;28;20055;-41
2021/05/01 10:14:34;;;;;;;14.32;5.90;;;;;;;38.35;16.81;94304.66;5124320;27;20354;-41
2021/05/01 10:20:56;;;;;;;14.50;5.50;;;;;;;35.69;17.94;94299.78;5077154;27;21023;-41
2021/05/01 10:23:23;;;;;;;13.40;3.83;;;;;;;33.24;18.38;94281.16;5092070;28;20450;-44
2021/05/01 10:25:50;;;;;;;12.68;4.43;;;;;;;32.28;19.23;94276.56;5077542;28;20059;-40
2021/05/01 10:28:19;;;;;;;13.18;3.80;;;;;;;36.27;15.28;94254.69;5071943;28;20041;-40
2021/05/01 10:30:54;;;;;;;15.65;4.43;;;;;;;39.50;12.69;94254.44;5073811;28;20051;-45
2021/05/01 10:33:32;;;;;;;10.95;4.00;;;;;;;41.09;10.33;94259.22;5072421;28;20465;-41
2021/05/01 10:36:05;;;;;;;8.60;3.80;;;;;;;42.10;9.65;94261.34;5082967;28;20359;-41
2021/05/01 10:38:33;;;;;;;16.50;4.38;;;;;;;42.31;9.64;94285.91;5071873;28;20467;-43
2021/05/01 10:41:20;;;;;;;16.45;4.55;;;;;;;41.89;9.12;94260.75;5082747;28;20052;-41
2021/05/01 10:43:56;;;;;;;15.65;4.32;;;;;;;41.37;9.17;94260.19;5092182;28;20048;-43
2021/05/01 10:46:28;;;;;;;12.15;4.07;;;;;;;40.34;10.71;94272.69;5092227;28;20055;-41
2021/05/01 10:49:03;;;;;;;13.10;4.13;;;;;;;43.04;8.29;94251.84;5070753;28;20479;-45
2021/05/01 10:51:46;;;;;;;11.57;3.88;;;;;;;42.39;9.41;94251.19;5078831;28;20450;-40
2021/05/01 10:54:13;;;;;;;15.05;4.45;;;;;;;42.95;7.93;94259.59;5090936;28;20438;-40
2021/05/01 10:56:52;;;;;;;180.20;16.33;;;;;;;42.86;7.92;94249.53;5082651;28;20055;-39
2021/05/01 10:59:20;;;;;;;13.75;3.90;;;;;;;40.71;9.50;94252.91;5071974;28;20036;-40
2021/05/01 11:01:49;;;;;;;11.15;3.88;;;;;;;40.45;10.08;94260.38;5080816;28;20059;-40
2021/05/01 11:04:19;;;;;;;16.17;4.15;;;;;;;41.89;9.57;94251.75;5091757;28;20051;-40
2021/05/01 11:06:51;;;;;;;18.23;4.55;;;;;;;40.81;9.48;94254.25;5091957;28;20078;-41
2021/05/01 11:09:43;;;;;;;16.15;3.85;;;;;;;40.81;9.17;94256.25;5091667;28;20036;-41
2021/05/01 11:12:11;;;;;;;14.52;3.80;;;;;;;41.40;9.42;94256.50;5090012;28;20071;-41
2021/05/01 11:14:51;;;;;;;14.20;5.13;;;;;;;41.24;9.24;94255.13;5089397;28;20044;-39
2021/05/01 11:17:34;;;;;;;11.60;4.03;;;;;;;41.45;8.62;94241.31;5091260;28;20067;-40
2021/05/01 11:20:08;;;;;;;12.57;4.00;;;;;;;40.22;9.39;94246.41;5088838;28;20087;-39
2021/05/01 11:22:38;;;;;;;10.40;3.70;;;;;;;41.30;9.46;94235.97;5084123;28;20052;-50
2021/05/01 11:25:09;;;;;;;14.93;4.03;;;;;;;39.71;10.65;94245.06;5088097;28;20047;-39
2021/05/01 11:27:38;;;;;;;17.10;4.28;;;;;;;39.80;9.38;94238.69;5085413;28;20051;-39
2021/05/01 11:30:07;;;;;;;14.05;3.88;;;;;;;39.41;9.59;94232.69;5089660;28;20048;-40
2021/05/01 11:32:36;;;;;;;12.10;3.88;;;;;;;40.08;9.46;94222.66;5077505;28;20044;-56
2021/05/01 11:35:10;;;;;;;11.25;3.55;;;;;;;40.85;10.12;94212.94;5077754;28;20048;-40
2021/05/01 11:37:39;;;;;;;37.42;5.85;;;;;;;39.02;10.49;94210.97;5074816;28;20051;-39
2021/05/01 11:40:10;;;;;;;14.88;4.57;;;;;;;41.62;9.80;94211.19;5074158;28;20056;-40
2021/05/01 11:42:39;;;;;;;12.27;3.55;;;;;;;42.04;8.97;94202.91;5074722;28;20056;-44
2021/05/01 11:45:14;;;;;;;17.00;4.53;;;;;;;41.35;8.71;94205.09;5075318;28;20356;-44
2021/05/01 11:47:49;;;;;;;25.83;15.20;;;;;;;41.30;9.03;94196.84;5072865;28;20071;-45